sensor_id;sensor_type;location;lat;lon;timestamp;P1;durP1;ratioP1;P2;durP2;ratioP2
69822;SDS011;57119;52.516;13.508;2023-05-10T00:02:01;7.57;;;3.83;;
69822;SDS011;57119;52.516;13.508;2023-05-10T00:04:26;8.20;;;4.50;;
69822;SDS011;57119;52.516;13.508;2023-05-10T00:06:52;9.13;;;4.23;;
69822;SDS011;57119;52.516;13.508;2023-05-10T00:09:18;9.13;;;4.63;;
69822;SDS011;57119;52.516;13.508;2023-05-10T00:11:43;9.60;;;4.03;;
69822;SDS011;57119;52.516;13.508;2023-05-10T00:14:09;8.93;;;4.38;;
69822;SDS011;57119;52.516;13.508;2023-05-10T00:16:34;8.60;;;4.63;;
69822;SDS011;57119;52.516;13.508;2023-05-10T00:18:59;9.97;;;3.83;;
69822;SDS011;57119;52.516;13.508;2023-05-10T00:21:25;10.17;;;4.60;;
69822;SDS011;57119;52.516;13.508;2023-05-10T00:23:50;8.77;;;4.20;;
69822;SDS011;57119;52.516;13.508;2023-05-10T00:26:16;9.02;;;4.40;;
69822;SDS011;57119;52.516;13.508;2023-05-10T00:28:41;9.80;;;4.60;;
69822;SDS011;57119;52.516;13.508;2023-05-10T00:31:07;8.07;;;4.27;;
69822;SDS011;57119;52.516;13.508;2023-05-10T00:33:32;9.07;;;4.13;;
69822;SDS011;57119;52.516;13.508;2023-05-10T00:35:57;8.82;;;4.70;;
69822;SDS011;57119;52.516;13.508;2023-05-10T00:38:23;10.30;;;4.40;;
69822;SDS011;57119;52.516;13.508;2023-05-10T00:40:48;9.47;;;4.20;;
69822;SDS011;57119;52.516;13.508;2023-05-10T00:43:13;9.33;;;4.00;;
69822;SDS011;57119;52.516;13.508;2023-05-10T00:45:39;10.97;;;4.37;;
69822;SDS011;57119;52.516;13.508;2023-05-10T00:48:06;10.15;;;4.22;;
69822;SDS011;57119;52.516;13.508;2023-05-10T00:50:32;9.25;;;4.05;;
69822;SDS011;57119;52.516;13.508;2023-05-10T00:53:01;8.87;;;4.50;;
69822;SDS011;57119;52.516;13.508;2023-05-10T00:55:27;9.57;;;4.72;;
69822;SDS011;57119;52.516;13.508;2023-05-10T00:57:53;10.52;;;4.60;;
69822;SDS011;57119;52.516;13.508;2023-05-10T01:00:18;14.23;;;4.30;;
69822;SDS011;57119;52.516;13.508;2023-05-10T01:02:45;8.87;;;4.40;;
69822;SDS011;57119;52.516;13.508;2023-05-10T01:05:11;9.27;;;4.40;;
69822;SDS011;57119;52.516;13.508;2023-05-10T01:07:36;12.13;;;4.63;;
69822;SDS011;57119;52.516;13.508;2023-05-10T01:10:02;8.83;;;4.73;;
69822;SDS011;57119;52.516;13.508;2023-05-10T01:12:27;8.63;;;4.30;;
69822;SDS011;57119;52.516;13.508;2023-05-10T01:14:53;9.57;;;4.50;;
69822;SDS011;57119;52.516;13.508;2023-05-10T01:17:19;8.87;;;4.33;;
69822;SDS011;57119;52.516;13.508;2023-05-10T01:19:45;8.25;;;4.70;;
69822;SDS011;57119;52.516;13.508;2023-05-10T01:30:26;9.90;;;4.70;;
69822;SDS011;57119;52.516;13.508;2023-05-10T01:36:05;11.33;;;5.07;;
69822;SDS011;57119;52.516;13.508;2023-05-10T01:38:45;10.68;;;5.68;;
69822;SDS011;57119;52.516;13.508;2023-05-10T01:41:28;9.27;;;4.30;;
69822;SDS011;57119;52.516;13.508;2023-05-10T01:44:37;9.38;;;5.00;;
69822;SDS011;57119;52.516;13.508;2023-05-10T01:47:44;9.13;;;4.63;;
69822;SDS011;57119;52.516;13.508;2023-05-10T01:50:17;10.50;;;4.70;;
69822;SDS011;57119;52.516;13.508;2023-05-10T01:52:46;9.50;;;4.82;;
69822;SDS011;57119;52.516;13.508;2023-05-10T01:55:16;10.15;;;4.93;;
69822;SDS011;57119;52.516;13.508;2023-05-10T01:57:44;11.20;;;5.10;;
69822;SDS011;57119;52.516;13.508;2023-05-10T02:00:11;10.43;;;4.95;;
69822;SDS011;57119;52.516;13.508;2023-05-10T02:02:42;9.63;;;4.90;;
69822;SDS011;57119;52.516;13.508;2023-05-10T02:05:10;11.02;;;4.82;;
69822;SDS011;57119;52.516;13.508;2023-05-10T02:07:38;12.07;;;4.95;;
69822;SDS011;57119;52.516;13.508;2023-05-10T02:10:04;10.13;;;4.72;;
69822;SDS011;57119;52.516;13.508;2023-05-10T02:12:32;10.07;;;4.28;;
69822;SDS011;57119;52.516;13.508;2023-05-10T02:15:01;10.53;;;4.93;;
69822;SDS011;57119;52.516;13.508;2023-05-10T02:17:29;9.55;;;5.15;;
69822;SDS011;57119;52.516;13.508;2023-05-10T02:19:56;10.75;;;4.82;;
69822;SDS011;57119;52.516;13.508;2023-05-10T02:22:24;9.00;;;4.80;;
69822;SDS011;57119;52.516;13.508;2023-05-10T02:24:51;12.90;;;5.43;;
69822;SDS011;57119;52.516;13.508;2023-05-10T02:27:19;10.37;;;4.80;;
69822;SDS011;57119;52.516;13.508;2023-05-10T02:29:45;8.77;;;4.32;;
69822;SDS011;57119;52.516;13.508;2023-05-10T02:32:12;9.77;;;4.80;;
69822;SDS011;57119;52.516;13.508;2023-05-10T02:34:38;10.85;;;5.03;;
69822;SDS011;57119;52.516;13.508;2023-05-10T02:37:05;10.77;;;4.60;;
69822;SDS011;57119;52.516;13.508;2023-05-10T02:39:31;11.37;;;4.70;;
69822;SDS011;57119;52.516;13.508;2023-05-10T02:41:57;9.95;;;5.28;;
69822;SDS011;57119;52.516;13.508;2023-05-10T02:44:23;10.02;;;4.63;;
69822;SDS011;57119;52.516;13.508;2023-05-10T02:46:53;8.60;;;4.50;;
69822;SDS011;57119;52.516;13.508;2023-05-10T02:49:20;9.57;;;4.53;;
69822;SDS011;57119;52.516;13.508;2023-05-10T02:51:50;8.63;;;4.00;;
69822;SDS011;57119;52.516;13.508;2023-05-10T02:54:20;15.10;;;4.50;;
69822;SDS011;57119;52.516;13.508;2023-05-10T02:56:56;13.67;;;5.30;;
69822;SDS011;57119;52.516;13.508;2023-05-10T02:59:24;8.73;;;4.40;;
69822;SDS011;57119;52.516;13.508;2023-05-10T03:01:49;12.17;;;4.40;;
69822;SDS011;57119;52.516;13.508;2023-05-10T03:04:15;9.00;;;4.30;;
69822;SDS011;57119;52.516;13.508;2023-05-10T03:06:40;10.90;;;4.50;;
69822;SDS011;57119;52.516;13.508;2023-05-10T03:09:06;8.10;;;4.13;;
69822;SDS011;57119;52.516;13.508;2023-05-10T03:11:39;11.30;;;4.35;;
69822;SDS011;57119;52.516;13.508;2023-05-10T03:17:15;13.80;;;4.57;;
69822;SDS011;57119;52.516;13.508;2023-05-10T03:19:40;10.73;;;4.18;;
69822;SDS011;57119;52.516;13.508;2023-05-10T03:22:13;11.15;;;3.97;;
69822;SDS011;57119;52.516;13.508;2023-05-10T03:24:46;8.98;;;4.00;;
69822;SDS011;57119;52.516;13.508;2023-05-10T03:27:14;8.80;;;4.27;;
69822;SDS011;57119;52.516;13.508;2023-05-10T03:29:39;10.13;;;4.55;;
69822;SDS011;57119;52.516;13.508;2023-05-10T03:32:06;9.70;;;4.18;;
69822;SDS011;57119;52.516;13.508;2023-05-10T03:34:31;8.63;;;4.87;;
69822;SDS011;57119;52.516;13.508;2023-05-10T03:36:57;8.80;;;4.30;;
69822;SDS011;57119;52.516;13.508;2023-05-10T03:39:22;9.27;;;4.20;;
69822;SDS011;57119;52.516;13.508;2023-05-10T03:41:48;10.87;;;4.20;;
69822;SDS011;57119;52.516;13.508;2023-05-10T03:44:13;9.47;;;4.63;;
69822;SDS011;57119;52.516;13.508;2023-05-10T03:46:38;9.70;;;4.67;;
69822;SDS011;57119;52.516;13.508;2023-05-10T03:49:04;9.80;;;4.17;;
69822;SDS011;57119;52.516;13.508;2023-05-10T03:51:29;13.30;;;4.57;;
69822;SDS011;57119;52.516;13.508;2023-05-10T03:53:56;10.77;;;4.47;;
69822;SDS011;57119;52.516;13.508;2023-05-10T03:56:21;10.35;;;4.45;;
69822;SDS011;57119;52.516;13.508;2023-05-10T03:58:47;9.87;;;4.23;;
69822;SDS011;57119;52.516;13.508;2023-05-10T04:01:12;10.27;;;4.50;;
69822;SDS011;57119;52.516;13.508;2023-05-10T04:03:37;11.27;;;4.37;;
69822;SDS011;57119;52.516;13.508;2023-05-10T04:06:03;9.23;;;4.00;;
69822;SDS011;57119;52.516;13.508;2023-05-10T04:08:29;11.50;;;4.47;;
69822;SDS011;57119;52.516;13.508;2023-05-10T04:10:54;9.98;;;4.30;;
69822;SDS011;57119;52.516;13.508;2023-05-10T04:13:29;9.00;;;4.07;;
69822;SDS011;57119;52.516;13.508;2023-05-10T04:15:54;9.70;;;3.77;;
69822;SDS011;57119;52.516;13.508;2023-05-10T04:18:19;11.70;;;4.23;;
69822;SDS011;57119;52.516;13.508;2023-05-10T04:20:45;9.27;;;3.90;;
69822;SDS011;57119;52.516;13.508;2023-05-10T04:23:10;8.87;;;4.23;;
69822;SDS011;57119;52.516;13.508;2023-05-10T04:25:36;11.30;;;4.37;;
69822;SDS011;57119;52.516;13.508;2023-05-10T04:28:01;10.93;;;4.05;;
69822;SDS011;57119;52.516;13.508;2023-05-10T04:30:26;11.37;;;4.53;;
69822;SDS011;57119;52.516;13.508;2023-05-10T04:32:54;10.75;;;4.03;;
69822;SDS011;57119;52.516;13.508;2023-05-10T04:35:19;7.67;;;3.77;;
69822;SDS011;57119;52.516;13.508;2023-05-10T04:37:44;12.23;;;4.57;;
69822;SDS011;57119;52.516;13.508;2023-05-10T04:40:10;9.53;;;4.03;;
69822;SDS011;57119;52.516;13.508;2023-05-10T04:42:35;9.07;;;3.78;;
69822;SDS011;57119;52.516;13.508;2023-05-10T04:45:01;9.87;;;4.10;;
69822;SDS011;57119;52.516;13.508;2023-05-10T04:47:26;9.33;;;3.83;;
69822;SDS011;57119;52.516;13.508;2023-05-10T04:49:52;8.57;;;3.60;;
69822;SDS011;57119;52.516;13.508;2023-05-10T04:52:17;8.23;;;4.10;;
69822;SDS011;57119;52.516;13.508;2023-05-10T04:54:43;10.40;;;3.65;;
69822;SDS011;57119;52.516;13.508;2023-05-10T04:57:08;10.33;;;3.80;;
69822;SDS011;57119;52.516;13.508;2023-05-10T04:59:35;9.37;;;3.77;;
69822;SDS011;57119;52.516;13.508;2023-05-10T05:02:01;9.55;;;4.20;;
69822;SDS011;57119;52.516;13.508;2023-05-10T05:04:27;10.37;;;3.47;;
69822;SDS011;57119;52.516;13.508;2023-05-10T05:06:52;8.02;;;3.42;;
69822;SDS011;57119;52.516;13.508;2023-05-10T05:09:17;8.47;;;3.67;;
69822;SDS011;57119;52.516;13.508;2023-05-10T05:11:43;11.13;;;3.40;;
69822;SDS011;57119;52.516;13.508;2023-05-10T05:14:08;8.43;;;3.40;;
69822;SDS011;57119;52.516;13.508;2023-05-10T05:16:33;7.90;;;3.27;;
69822;SDS011;57119;52.516;13.508;2023-05-10T05:18:59;6.97;;;3.03;;
69822;SDS011;57119;52.516;13.508;2023-05-10T05:21:24;7.70;;;3.67;;
69822;SDS011;57119;52.516;13.508;2023-05-10T05:23:51;8.55;;;3.33;;
69822;SDS011;57119;52.516;13.508;2023-05-10T05:26:17;7.07;;;3.50;;
69822;SDS011;57119;52.516;13.508;2023-05-10T05:28:42;11.03;;;3.10;;
69822;SDS011;57119;52.516;13.508;2023-05-10T05:31:08;10.67;;;3.33;;
69822;SDS011;57119;52.516;13.508;2023-05-10T05:33:34;8.80;;;3.80;;
69822;SDS011;57119;52.516;13.508;2023-05-10T05:36:02;7.83;;;3.30;;
69822;SDS011;57119;52.516;13.508;2023-05-10T05:38:29;7.55;;;3.10;;
69822;SDS011;57119;52.516;13.508;2023-05-10T05:40:55;7.73;;;3.00;;
69822;SDS011;57119;52.516;13.508;2023-05-10T05:43:20;6.18;;;3.10;;
69822;SDS011;57119;52.516;13.508;2023-05-10T05:45:45;9.57;;;3.37;;
69822;SDS011;57119;52.516;13.508;2023-05-10T05:48:11;7.67;;;3.20;;
69822;SDS011;57119;52.516;13.508;2023-05-10T05:50:36;10.43;;;2.80;;
69822;SDS011;57119;52.516;13.508;2023-05-10T05:53:02;9.40;;;3.00;;
69822;SDS011;57119;52.516;13.508;2023-05-10T05:55:27;7.33;;;2.80;;
69822;SDS011;57119;52.516;13.508;2023-05-10T05:57:52;6.77;;;3.10;;
69822;SDS011;57119;52.516;13.508;2023-05-10T06:00:18;7.35;;;2.83;;
69822;SDS011;57119;52.516;13.508;2023-05-10T06:02:44;8.10;;;2.97;;
69822;SDS011;57119;52.516;13.508;2023-05-10T06:05:09;6.17;;;2.77;;
69822;SDS011;57119;52.516;13.508;2023-05-10T06:07:35;8.37;;;2.90;;
69822;SDS011;57119;52.516;13.508;2023-05-10T06:10:00;7.57;;;2.90;;
69822;SDS011;57119;52.516;13.508;2023-05-10T06:12:26;6.20;;;2.23;;
69822;SDS011;57119;52.516;13.508;2023-05-10T06:14:51;6.17;;;2.40;;
69822;SDS011;57119;52.516;13.508;2023-05-10T06:17:16;7.70;;;2.60;;
69822;SDS011;57119;52.516;13.508;2023-05-10T06:19:42;5.53;;;2.63;;
69822;SDS011;57119;52.516;13.508;2023-05-10T06:22:07;12.53;;;3.00;;
69822;SDS011;57119;52.516;13.508;2023-05-10T06:24:32;6.63;;;2.50;;
69822;SDS011;57119;52.516;13.508;2023-05-10T06:26:58;6.20;;;2.77;;
69822;SDS011;57119;52.516;13.508;2023-05-10T06:29:25;6.30;;;2.28;;
69822;SDS011;57119;52.516;13.508;2023-05-10T06:31:50;7.00;;;2.20;;
69822;SDS011;57119;52.516;13.508;2023-05-10T06:34:15;6.33;;;2.03;;
69822;SDS011;57119;52.516;13.508;2023-05-10T06:36:41;5.50;;;2.30;;
69822;SDS011;57119;52.516;13.508;2023-05-10T06:39:06;6.87;;;2.73;;
69822;SDS011;57119;52.516;13.508;2023-05-10T06:41:32;7.40;;;2.67;;
69822;SDS011;57119;52.516;13.508;2023-05-10T06:43:57;6.60;;;2.60;;
69822;SDS011;57119;52.516;13.508;2023-05-10T06:46:23;10.50;;;2.83;;
69822;SDS011;57119;52.516;13.508;2023-05-10T06:48:48;10.17;;;3.07;;
69822;SDS011;57119;52.516;13.508;2023-05-10T06:51:13;6.37;;;2.43;;
69822;SDS011;57119;52.516;13.508;2023-05-10T06:53:39;7.00;;;2.40;;
69822;SDS011;57119;52.516;13.508;2023-05-10T06:56:04;5.85;;;2.13;;
69822;SDS011;57119;52.516;13.508;2023-05-10T06:58:30;6.33;;;2.83;;
69822;SDS011;57119;52.516;13.508;2023-05-10T07:01:01;7.27;;;2.23;;
69822;SDS011;57119;52.516;13.508;2023-05-10T07:03:27;5.35;;;2.30;;
69822;SDS011;57119;52.516;13.508;2023-05-10T07:05:52;7.63;;;2.60;;
69822;SDS011;57119;52.516;13.508;2023-05-10T07:08:17;8.17;;;3.13;;
69822;SDS011;57119;52.516;13.508;2023-05-10T07:10:43;5.87;;;2.23;;
69822;SDS011;57119;52.516;13.508;2023-05-10T07:13:08;6.53;;;2.35;;
69822;SDS011;57119;52.516;13.508;2023-05-10T07:15:34;9.88;;;2.40;;
69822;SDS011;57119;52.516;13.508;2023-05-10T07:18:00;8.27;;;2.70;;
69822;SDS011;57119;52.516;13.508;2023-05-10T07:20:25;9.17;;;3.00;;
69822;SDS011;57119;52.516;13.508;2023-05-10T07:22:51;6.57;;;2.47;;
69822;SDS011;57119;52.516;13.508;2023-05-10T07:25:16;5.88;;;2.53;;
69822;SDS011;57119;52.516;13.508;2023-05-10T07:27:41;6.33;;;2.50;;
69822;SDS011;57119;52.516;13.508;2023-05-10T07:30:07;8.53;;;2.77;;
69822;SDS011;57119;52.516;13.508;2023-05-10T07:32:33;8.07;;;2.95;;
69822;SDS011;57119;52.516;13.508;2023-05-10T07:34:58;7.30;;;3.10;;
69822;SDS011;57119;52.516;13.508;2023-05-10T07:37:23;7.77;;;3.20;;
69822;SDS011;57119;52.516;13.508;2023-05-10T07:39:49;6.30;;;2.80;;
69822;SDS011;57119;52.516;13.508;2023-05-10T07:42:14;6.37;;;2.80;;
69822;SDS011;57119;52.516;13.508;2023-05-10T07:44:40;7.77;;;2.77;;
69822;SDS011;57119;52.516;13.508;2023-05-10T07:47:05;6.97;;;2.97;;
69822;SDS011;57119;52.516;13.508;2023-05-10T07:49:30;8.63;;;2.53;;
69822;SDS011;57119;52.516;13.508;2023-05-10T07:51:56;5.93;;;2.60;;
69822;SDS011;57119;52.516;13.508;2023-05-10T07:54:21;6.97;;;2.60;;
69822;SDS011;57119;52.516;13.508;2023-05-10T07:56:46;7.63;;;3.10;;
69822;SDS011;57119;52.516;13.508;2023-05-10T07:59:16;8.07;;;3.13;;
69822;SDS011;57119;52.516;13.508;2023-05-10T08:01:42;5.90;;;2.80;;
69822;SDS011;57119;52.516;13.508;2023-05-10T08:04:08;8.13;;;2.92;;
69822;SDS011;57119;52.516;13.508;2023-05-10T08:06:34;7.90;;;3.20;;
69822;SDS011;57119;52.516;13.508;2023-05-10T08:08:59;6.88;;;3.20;;
69822;SDS011;57119;52.516;13.508;2023-05-10T08:11:25;6.77;;;2.77;;
69822;SDS011;57119;52.516;13.508;2023-05-10T08:13:52;6.13;;;2.88;;
69822;SDS011;57119;52.516;13.508;2023-05-10T08:16:17;5.23;;;2.57;;
69822;SDS011;57119;52.516;13.508;2023-05-10T08:18:43;5.83;;;2.63;;
69822;SDS011;57119;52.516;13.508;2023-05-10T08:21:12;6.95;;;3.22;;
69822;SDS011;57119;52.516;13.508;2023-05-10T08:23:38;7.05;;;3.10;;
69822;SDS011;57119;52.516;13.508;2023-05-10T08:26:04;9.10;;;2.90;;
69822;SDS011;57119;52.516;13.508;2023-05-10T08:28:29;7.13;;;3.20;;
69822;SDS011;57119;52.516;13.508;2023-05-10T08:30:55;6.90;;;2.67;;
69822;SDS011;57119;52.516;13.508;2023-05-10T08:33:20;6.47;;;3.03;;
69822;SDS011;57119;52.516;13.508;2023-05-10T08:35:46;7.43;;;2.93;;
69822;SDS011;57119;52.516;13.508;2023-05-10T08:38:11;6.37;;;3.23;;
69822;SDS011;57119;52.516;13.508;2023-05-10T08:40:38;9.98;;;3.25;;
69822;SDS011;57119;52.516;13.508;2023-05-10T08:43:07;7.80;;;3.40;;
69822;SDS011;57119;52.516;13.508;2023-05-10T08:45:37;7.03;;;3.50;;
69822;SDS011;57119;52.516;13.508;2023-05-10T08:48:08;6.90;;;3.30;;
69822;SDS011;57119;52.516;13.508;2023-05-10T08:50:35;5.45;;;3.22;;
69822;SDS011;57119;52.516;13.508;2023-05-10T08:53:03;6.88;;;3.00;;
69822;SDS011;57119;52.516;13.508;2023-05-10T08:55:32;7.45;;;3.00;;
69822;SDS011;57119;52.516;13.508;2023-05-10T08:57:59;6.07;;;3.23;;
69822;SDS011;57119;52.516;13.508;2023-05-10T09:00:25;8.68;;;3.42;;
69822;SDS011;57119;52.516;13.508;2023-05-10T09:02:51;7.50;;;3.17;;
69822;SDS011;57119;52.516;13.508;2023-05-10T09:05:17;6.18;;;3.45;;
69822;SDS011;57119;52.516;13.508;2023-05-10T09:07:42;6.30;;;2.97;;
69822;SDS011;57119;52.516;13.508;2023-05-10T09:10:08;6.22;;;3.08;;
69822;SDS011;57119;52.516;13.508;2023-05-10T09:12:35;6.63;;;3.03;;
69822;SDS011;57119;52.516;13.508;2023-05-10T09:15:01;7.65;;;3.10;;
69822;SDS011;57119;52.516;13.508;2023-05-10T09:17:27;6.47;;;3.17;;
69822;SDS011;57119;52.516;13.508;2023-05-10T09:19:57;6.40;;;3.50;;
69822;SDS011;57119;52.516;13.508;2023-05-10T09:22:27;6.97;;;3.78;;
69822;SDS011;57119;52.516;13.508;2023-05-10T09:27:34;6.85;;;3.28;;
69822;SDS011;57119;52.516;13.508;2023-05-10T09:30:01;7.82;;;2.88;;
69822;SDS011;57119;52.516;13.508;2023-05-10T09:32:43;6.30;;;3.50;;
69822;SDS011;57119;52.516;13.508;2023-05-10T09:35:10;7.93;;;3.60;;
69822;SDS011;57119;52.516;13.508;2023-05-10T09:37:40;7.30;;;3.40;;
69822;SDS011;57119;52.516;13.508;2023-05-10T09:40:11;6.32;;;3.20;;
69822;SDS011;57119;52.516;13.508;2023-05-10T09:42:37;6.53;;;3.58;;
69822;SDS011;57119;52.516;13.508;2023-05-10T09:45:03;7.87;;;3.30;;
69822;SDS011;57119;52.516;13.508;2023-05-10T09:47:33;7.32;;;3.58;;
69822;SDS011;57119;52.516;13.508;2023-05-10T09:50:00;7.50;;;3.88;;
69822;SDS011;57119;52.516;13.508;2023-05-10T09:55:18;6.63;;;3.30;;
69822;SDS011;57119;52.516;13.508;2023-05-10T09:57:46;8.38;;;3.53;;
69822;SDS011;57119;52.516;13.508;2023-05-10T10:00:16;8.20;;;3.35;;
69822;SDS011;57119;52.516;13.508;2023-05-10T10:02:44;7.35;;;3.80;;
69822;SDS011;57119;52.516;13.508;2023-05-10T10:05:11;9.68;;;3.50;;
69822;SDS011;57119;52.516;13.508;2023-05-10T10:07:36;7.17;;;3.10;;
69822;SDS011;57119;52.516;13.508;2023-05-10T10:10:02;6.05;;;3.78;;
69822;SDS011;57119;52.516;13.508;2023-05-10T10:12:29;7.50;;;3.72;;
69822;SDS011;57119;52.516;13.508;2023-05-10T10:14:55;6.17;;;3.40;;
69822;SDS011;57119;52.516;13.508;2023-05-10T10:17:21;6.53;;;3.97;;
69822;SDS011;57119;52.516;13.508;2023-05-10T10:19:52;6.43;;;3.50;;
69822;SDS011;57119;52.516;13.508;2023-05-10T10:22:18;9.60;;;3.67;;
69822;SDS011;57119;52.516;13.508;2023-05-10T10:24:43;5.68;;;3.33;;
69822;SDS011;57119;52.516;13.508;2023-05-10T10:27:15;8.03;;;3.70;;
69822;SDS011;57119;52.516;13.508;2023-05-10T10:30:03;7.50;;;3.42;;
69822;SDS011;57119;52.516;13.508;2023-05-10T10:32:58;6.35;;;3.45;;
69822;SDS011;57119;52.516;13.508;2023-05-10T10:35:38;6.00;;;3.95;;
69822;SDS011;57119;52.516;13.508;2023-05-10T10:38:04;6.23;;;3.40;;
69822;SDS011;57119;52.516;13.508;2023-05-10T10:40:32;6.82;;;4.20;;
69822;SDS011;57119;52.516;13.508;2023-05-10T10:43:20;5.70;;;4.10;;
69822;SDS011;57119;52.516;13.508;2023-05-10T10:48:39;5.82;;;3.30;;
69822;SDS011;57119;52.516;13.508;2023-05-10T10:51:16;6.23;;;3.70;;
69822;SDS011;57119;52.516;13.508;2023-05-10T10:53:42;5.53;;;3.28;;
69822;SDS011;57119;52.516;13.508;2023-05-10T10:56:09;6.80;;;3.20;;
69822;SDS011;57119;52.516;13.508;2023-05-10T10:58:40;5.83;;;3.50;;
69822;SDS011;57119;52.516;13.508;2023-05-10T11:01:18;8.02;;;4.15;;
69822;SDS011;57119;52.516;13.508;2023-05-10T11:04:31;7.40;;;3.92;;
69822;SDS011;57119;52.516;13.508;2023-05-10T11:08:56;6.78;;;3.88;;
69822;SDS011;57119;52.516;13.508;2023-05-10T11:11:22;7.67;;;4.20;;
69822;SDS011;57119;52.516;13.508;2023-05-10T11:13:47;7.97;;;4.53;;
69822;SDS011;57119;52.516;13.508;2023-05-10T11:18:59;6.20;;;3.65;;
69822;SDS011;57119;52.516;13.508;2023-05-10T11:21:27;7.53;;;3.70;;
69822;SDS011;57119;52.516;13.508;2023-05-10T11:23:57;6.13;;;4.00;;
69822;SDS011;57119;52.516;13.508;2023-05-10T11:26:30;6.40;;;4.43;;
69822;SDS011;57119;52.516;13.508;2023-05-10T11:28:57;8.25;;;3.40;;
69822;SDS011;57119;52.516;13.508;2023-05-10T11:31:27;8.60;;;4.35;;
69822;SDS011;57119;52.516;13.508;2023-05-10T11:33:53;10.35;;;3.83;;
69822;SDS011;57119;52.516;13.508;2023-05-10T11:36:21;8.60;;;3.65;;
69822;SDS011;57119;52.516;13.508;2023-05-10T11:38:50;6.87;;;3.37;;
69822;SDS011;57119;52.516;13.508;2023-05-10T11:41:17;7.97;;;3.63;;
69822;SDS011;57119;52.516;13.508;2023-05-10T11:43:45;10.75;;;4.00;;
69822;SDS011;57119;52.516;13.508;2023-05-10T11:46:13;8.02;;;3.92;;
69822;SDS011;57119;52.516;13.508;2023-05-10T11:48:39;9.37;;;3.57;;
69822;SDS011;57119;52.516;13.508;2023-05-10T11:51:09;7.63;;;3.45;;
69822;SDS011;57119;52.516;13.508;2023-05-10T11:53:35;9.52;;;3.50;;
69822;SDS011;57119;52.516;13.508;2023-05-10T11:56:06;7.60;;;3.33;;
69822;SDS011;57119;52.516;13.508;2023-05-10T11:58:34;8.85;;;3.60;;
69822;SDS011;57119;52.516;13.508;2023-05-10T12:01:00;8.10;;;3.55;;
69822;SDS011;57119;52.516;13.508;2023-05-10T12:03:26;7.47;;;3.43;;
69822;SDS011;57119;52.516;13.508;2023-05-10T12:05:53;8.20;;;3.65;;
69822;SDS011;57119;52.516;13.508;2023-05-10T12:08:23;10.52;;;3.47;;
69822;SDS011;57119;52.516;13.508;2023-05-10T12:10:49;7.38;;;3.45;;
69822;SDS011;57119;52.516;13.508;2023-05-10T12:13:15;8.43;;;3.70;;
69822;SDS011;57119;52.516;13.508;2023-05-10T12:15:40;8.05;;;3.78;;
69822;SDS011;57119;52.516;13.508;2023-05-10T12:18:13;9.15;;;3.70;;
69822;SDS011;57119;52.516;13.508;2023-05-10T12:20:39;8.57;;;3.17;;
69822;SDS011;57119;52.516;13.508;2023-05-10T12:23:05;6.22;;;3.45;;
69822;SDS011;57119;52.516;13.508;2023-05-10T12:25:34;6.65;;;3.65;;
69822;SDS011;57119;52.516;13.508;2023-05-10T12:28:02;8.82;;;3.50;;
69822;SDS011;57119;52.516;13.508;2023-05-10T12:30:31;6.85;;;4.05;;
69822;SDS011;57119;52.516;13.508;2023-05-10T12:33:10;5.87;;;3.33;;
69822;SDS011;57119;52.516;13.508;2023-05-10T12:35:47;6.57;;;3.30;;
69822;SDS011;57119;52.516;13.508;2023-05-10T12:38:35;8.30;;;2.92;;
69822;SDS011;57119;52.516;13.508;2023-05-10T12:41:03;10.35;;;3.33;;
69822;SDS011;57119;52.516;13.508;2023-05-10T12:43:30;8.05;;;4.10;;
69822;SDS011;57119;52.516;13.508;2023-05-10T12:45:57;8.05;;;4.07;;
69822;SDS011;57119;52.516;13.508;2023-05-10T12:48:22;6.93;;;3.47;;
69822;SDS011;57119;52.516;13.508;2023-05-10T12:50:48;8.50;;;3.50;;
69822;SDS011;57119;52.516;13.508;2023-05-10T12:53:14;7.40;;;3.88;;
69822;SDS011;57119;52.516;13.508;2023-05-10T12:55:42;6.33;;;3.20;;
69822;SDS011;57119;52.516;13.508;2023-05-10T12:58:08;7.70;;;3.90;;
69822;SDS011;57119;52.516;13.508;2023-05-10T13:00:34;7.18;;;4.55;;
69822;SDS011;57119;52.516;13.508;2023-05-10T13:02:59;7.20;;;4.20;;
69822;SDS011;57119;52.516;13.508;2023-05-10T13:05:26;6.68;;;3.40;;
69822;SDS011;57119;52.516;13.508;2023-05-10T13:07:51;11.60;;;4.40;;
69822;SDS011;57119;52.516;13.508;2023-05-10T13:10:17;9.27;;;4.30;;
69822;SDS011;57119;52.516;13.508;2023-05-10T13:12:42;6.53;;;3.67;;
69822;SDS011;57119;52.516;13.508;2023-05-10T13:15:07;9.23;;;4.67;;
69822;SDS011;57119;52.516;13.508;2023-05-10T13:17:33;9.93;;;4.93;;
69822;SDS011;57119;52.516;13.508;2023-05-10T13:19:59;7.05;;;4.03;;
69822;SDS011;57119;52.516;13.508;2023-05-10T13:22:24;7.23;;;4.50;;
69822;SDS011;57119;52.516;13.508;2023-05-10T13:24:50;6.33;;;3.80;;
69822;SDS011;57119;52.516;13.508;2023-05-10T13:27:15;6.15;;;4.00;;
69822;SDS011;57119;52.516;13.508;2023-05-10T13:29:40;6.43;;;4.17;;
69822;SDS011;57119;52.516;13.508;2023-05-10T13:32:06;6.20;;;3.60;;
69822;SDS011;57119;52.516;13.508;2023-05-10T13:34:31;6.77;;;3.10;;
69822;SDS011;57119;52.516;13.508;2023-05-10T13:36:57;7.30;;;3.80;;
69822;SDS011;57119;52.516;13.508;2023-05-10T13:39:22;5.97;;;4.00;;
69822;SDS011;57119;52.516;13.508;2023-05-10T13:41:48;7.43;;;4.07;;
69822;SDS011;57119;52.516;13.508;2023-05-10T13:44:13;6.43;;;4.05;;
69822;SDS011;57119;52.516;13.508;2023-05-10T13:46:40;8.23;;;4.43;;
69822;SDS011;57119;52.516;13.508;2023-05-10T13:49:06;9.70;;;3.50;;
69822;SDS011;57119;52.516;13.508;2023-05-10T13:51:32;8.88;;;4.00;;
69822;SDS011;57119;52.516;13.508;2023-05-10T13:53:58;8.40;;;4.00;;
69822;SDS011;57119;52.516;13.508;2023-05-10T13:56:24;7.13;;;3.83;;
69822;SDS011;57119;52.516;13.508;2023-05-10T13:58:49;7.07;;;3.30;;
69822;SDS011;57119;52.516;13.508;2023-05-10T14:01:14;7.13;;;3.90;;
69822;SDS011;57119;52.516;13.508;2023-05-10T14:03:40;7.38;;;3.17;;
69822;SDS011;57119;52.516;13.508;2023-05-10T14:06:05;7.03;;;3.33;;
69822;SDS011;57119;52.516;13.508;2023-05-10T14:08:32;5.72;;;3.90;;
69822;SDS011;57119;52.516;13.508;2023-05-10T14:10:58;7.10;;;4.07;;
69822;SDS011;57119;52.516;13.508;2023-05-10T14:13:23;8.52;;;3.35;;
69822;SDS011;57119;52.516;13.508;2023-05-10T14:15:49;6.17;;;3.30;;
69822;SDS011;57119;52.516;13.508;2023-05-10T14:18:15;6.57;;;3.77;;
69822;SDS011;57119;52.516;13.508;2023-05-10T14:20:40;7.90;;;4.47;;
69822;SDS011;57119;52.516;13.508;2023-05-10T14:23:06;6.70;;;3.83;;
69822;SDS011;57119;52.516;13.508;2023-05-10T14:25:31;6.13;;;3.70;;
69822;SDS011;57119;52.516;13.508;2023-05-10T14:27:58;6.97;;;3.47;;
69822;SDS011;57119;52.516;13.508;2023-05-10T14:30:23;8.97;;;3.37;;
69822;SDS011;57119;52.516;13.508;2023-05-10T14:32:49;5.60;;;3.70;;
69822;SDS011;57119;52.516;13.508;2023-05-10T14:35:14;5.80;;;3.40;;
69822;SDS011;57119;52.516;13.508;2023-05-10T14:37:40;5.60;;;4.07;;
69822;SDS011;57119;52.516;13.508;2023-05-10T14:40:05;6.83;;;4.47;;
69822;SDS011;57119;52.516;13.508;2023-05-10T14:42:31;5.53;;;3.60;;
69822;SDS011;57119;52.516;13.508;2023-05-10T14:44:57;8.97;;;4.10;;
69822;SDS011;57119;52.516;13.508;2023-05-10T14:47:22;8.73;;;4.28;;
69822;SDS011;57119;52.516;13.508;2023-05-10T14:49:47;5.80;;;4.47;;
69822;SDS011;57119;52.516;13.508;2023-05-10T14:52:13;6.10;;;4.17;;
69822;SDS011;57119;52.516;13.508;2023-05-10T14:54:39;6.88;;;3.78;;
69822;SDS011;57119;52.516;13.508;2023-05-10T14:57:05;6.30;;;3.50;;
69822;SDS011;57119;52.516;13.508;2023-05-10T14:59:31;7.03;;;3.57;;
69822;SDS011;57119;52.516;13.508;2023-05-10T15:01:56;5.95;;;4.47;;